Time;durP1;ratioP1;P1;durP2;ratioP2;P2;SDS_P1;SDS_P2;PMS_P1;PMS_P2;Temp;Humidity;BMP_temperature;BMP_pressure;BME280_temperature;BME280_humidity;BME280_pressure;Samples;Min_cycle;Max_cycle;Signal;HPM_P1;HPM_P2
2023/04/12 00:00:41;;;;;;;8.38;5.95;;;4.10;99.90;;;;;;5029245;28;20199;-83
2023/04/12 00:03:09;;;;;;;13.02;7.38;;;4.30;99.90;;;;;;5020617;28;20235;-83
2023/04/12 00:05:36;;;;;;;11.20;7.15;;;4.20;99.90;;;;;;5022040;28;20586;-83
2023/04/12 00:08:03;;;;;;;9.57;5.97;;;4.00;99.90;;;;;;5014527;28;20220;-84
2023/04/12 00:10:30;;;;;;;9.45;7.30;;;4.10;99.90;;;;;;5010212;28;20255;-84
2023/04/12 00:12:57;;;;;;;7.80;6.53;;;4.30;99.90;;;;;;5000096;28;20208;-83
2023/04/12 00:15:24;;;;;;;8.80;6.30;;;4.20;99.90;;;;;;4998064;28;20451;-83
2023/04/12 00:17:51;;;;;;;13.32;6.57;;;4.20;99.90;;;;;;5009647;28;20269;-84
2023/04/12 00:20:18;;;;;;;9.98;6.82;;;4.00;99.90;;;;;;5009040;28;20741;-83
2023/04/12 00:22:46;;;;;;;7.55;6.35;;;4.00;99.90;;;;;;5007482;28;20260;-85
2023/04/12 00:25:13;;;;;;;11.48;6.70;;;3.90;99.90;;;;;;4998202;28;20209;-85
2023/04/12 00:27:40;;;;;;;11.55;6.50;;;3.80;99.90;;;;;;4999549;28;20211;-85
2023/04/12 00:30:07;;;;;;;11.40;5.95;;;3.80;99.90;;;;;;5004801;28;20472;-84
2023/04/12 00:32:34;;;;;;;7.55;6.07;;;3.60;99.90;;;;;;5005898;28;20211;-85
2023/04/12 00:35:01;;;;;;;9.50;7.07;;;3.60;99.90;;;;;;5005022;28;20393;-83
2023/04/12 00:37:28;;;;;;;8.63;7.07;;;3.70;99.90;;;;;;5005426;28;20512;-86
2023/04/12 00:39:55;;;;;;;13.63;5.80;;;3.70;99.90;;;;;;5012149;28;20211;-84
2023/04/12 00:42:22;;;;;;;12.20;6.30;;;3.60;99.90;;;;;;4997320;28;20477;-84
2023/04/12 00:44:49;;;;;;;13.88;7.38;;;3.70;99.90;;;;;;5016736;28;20223;-84
2023/04/12 00:47:16;;;;;;;8.18;6.43;;;3.60;99.90;;;;;;4983334;28;20393;-83
2023/04/12 00:49:42;;;;;;;9.25;5.88;;;3.50;99.90;;;;;;5000037;28;20254;-84
2023/04/12 00:52:13;;;;;;;7.82;7.03;;;3.50;99.90;;;;;;5010853;28;20205;-83
2023/04/12 00:54:42;;;;;;;9.50;5.80;;;3.50;99.90;;;;;;5009208;28;20210;-83
2023/04/12 00:57:08;;;;;;;8.95;6.75;;;3.50;99.90;;;;;;5001083;28;20212;-82
2023/04/12 00:59:35;;;;;;;8.23;6.40;;;3.70;99.90;;;;;;5009694;28;20218;-83
2023/04/12 01:02:02;;;;;;;8.27;6.50;;;3.70;99.90;;;;;;4994513;28;20270;-88
2023/04/12 01:04:29;;;;;;;7.75;6.03;;;3.50;99.90;;;;;;4998521;28;20215;-88
2023/04/12 01:07:22;;;;;;;8.90;6.13;;;3.60;99.90;;;;;;5000097;28;20505;-86
2023/04/12 01:10:15;;;;;;;9.10;5.10;;;3.50;99.90;;;;;;4991911;28;20250;-88
2023/04/12 01:13:11;;;;;;;8.63;6.07;;;3.40;99.90;;;;;;5008887;28;20725;-86
2023/04/12 01:15:50;;;;;;;10.90;5.65;;;3.50;99.90;;;;;;5014383;28;20207;-86
2023/04/12 01:18:22;;;;;;;6.57;4.72;;;3.50;99.90;;;;;;4993415;28;20246;-86
2023/04/12 01:20:56;;;;;;;8.00;4.78;;;3.60;99.90;;;;;;5011148;28;20212;-86
2023/04/12 01:23:48;;;;;;;7.70;5.97;;;3.60;99.90;;;;;;5014516;28;20239;-87
2023/04/12 01:26:35;;;;;;;9.82;5.32;;;3.60;99.90;;;;;;5002962;28;20222;-86
2023/04/12 01:29:08;;;;;;;8.93;5.13;;;3.30;99.90;;;;;;5005361;28;20213;-86
2023/04/12 01:32:00;;;;;;;7.30;5.55;;;3.30;99.90;;;;;;5002702;28;20407;-82
2023/04/12 01:34:30;;;;;;;7.25;5.50;;;3.30;99.90;;;;;;5003707;28;20219;-84
2023/04/12 01:37:02;;;;;;;9.05;5.15;;;3.30;99.90;;;;;;5017148;28;20257;-84
2023/04/12 01:39:31;;;;;;;5.10;4.55;;;3.30;99.90;;;;;;4996240;28;20196;-85
2023/04/12 01:41:58;;;;;;;7.70;4.75;;;3.30;99.90;;;;;;5010738;28;20229;-84
2023/04/12 01:44:25;;;;;;;13.85;6.00;;;3.20;99.90;;;;;;5006380;28;20199;-85
2023/04/12 01:46:52;;;;;;;10.27;5.38;;;3.20;99.90;;;;;;5010320;28;20659;-83
2023/04/12 01:49:22;;;;;;;8.25;6.25;;;3.40;99.90;;;;;;5011083;28;20215;-85
2023/04/12 01:52:04;;;;;;;11.77;5.38;;;3.30;99.90;;;;;;5009426;28;20574;-87
2023/04/12 01:54:37;;;;;;;7.30;5.53;;;3.40;99.90;;;;;;5002518;28;20204;-84
2023/04/12 01:57:07;;;;;;;5.30;4.80;;;3.60;99.90;;;;;;4997320;28;20215;-82
2023/04/12 01:59:39;;;;;;;6.65;5.55;;;3.60;99.90;;;;;;5004813;28;20213;-84
2023/04/12 02:02:11;;;;;;;6.93;5.68;;;3.50;99.90;;;;;;4998342;28;20247;-84
2023/04/12 02:04:41;;;;;;;10.10;6.07;;;3.50;99.90;;;;;;5016433;28;20267;-84
2023/04/12 02:07:08;;;;;;;12.07;6.45;;;3.50;99.90;;;;;;5003785;28;20209;-83
2023/04/12 02:09:38;;;;;;;8.70;5.32;;;3.50;99.90;;;;;;5003526;28;20550;-84
2023/04/12 02:12:06;;;;;;;8.75;5.45;;;3.50;99.90;;;;;;4994289;28;20299;-85
2023/04/12 02:14:33;;;;;;;7.95;5.93;;;3.60;99.90;;;;;;5006578;28;20212;-83
2023/04/12 02:17:04;;;;;;;13.63;6.35;;;3.60;99.90;;;;;;5011992;28;20215;-83
2023/04/12 02:19:31;;;;;;;9.80;5.03;;;3.70;99.90;;;;;;5010893;28;20742;-86
2023/04/12 02:21:58;;;;;;;11.05;5.85;;;3.60;99.90;;;;;;5006524;28;20211;-83
2023/04/12 02:24:26;;;;;;;7.07;5.68;;;3.60;99.90;;;;;;5012616;28;20207;-82
2023/04/12 02:26:53;;;;;;;19.17;7.55;;;3.50;99.90;;;;;;5000230;28;20266;-81
2023/04/12 02:29:20;;;;;;;7.05;5.20;;;3.60;99.90;;;;;;5014414;28;20261;-83
2023/04/12 02:31:47;;;;;;;8.93;6.60;;;3.50;99.90;;;;;;5008639;28;20444;-83
2023/04/12 02:34:16;;;;;;;10.27;6.00;;;3.40;99.90;;;;;;5000738;28;20216;-85
2023/04/12 02:36:48;;;;;;;13.73;6.75;;;3.30;99.90;;;;;;5002362;28;20214;-84
2023/04/12 02:39:20;;;;;;;9.98;6.53;;;3.30;99.90;;;;;;5003330;28;20435;-86
2023/04/12 02:41:48;;;;;;;10.38;7.47;;;3.20;99.90;;;;;;5003778;28;20195;-84
2023/04/12 02:44:15;;;;;;;8.55;7.40;;;3.20;99.90;;;;;;5001188;28;20230;-85
2023/04/12 02:46:44;;;;;;;14.00;7.07;;;3.20;99.90;;;;;;5002157;28;20203;-84
2023/04/12 02:49:11;;;;;;;12.85;8.52;;;3.20;99.90;;;;;;5009410;28;20207;-83
2023/04/12 02:51:38;;;;;;;14.57;9.18;;;3.10;99.90;;;;;;5005843;28;20207;-83
2023/04/12 02:54:06;;;;;;;15.27;8.15;;;3.10;99.90;;;;;;4993037;28;20565;-85
2023/04/12 02:56:36;;;;;;;12.95;8.52;;;3.10;99.90;;;;;;5014790;28;20385;-83
2023/04/12 02:59:05;;;;;;;15.05;8.00;;;3.10;99.90;;;;;;5001325;28;20202;-83
2023/04/12 03:01:33;;;;;;;12.32;8.43;;;3.10;99.90;;;;;;5003991;28;20239;-83
2023/04/12 03:04:01;;;;;;;10.80;7.93;;;3.20;99.90;;;;;;4998475;28;20294;-83
2023/04/12 03:06:29;;;;;;;10.95;7.88;;;3.30;99.90;;;;;;4992725;28;20385;-84
2023/04/12 03:08:56;;;;;;;11.77;8.02;;;3.30;99.90;;;;;;5002667;28;20195;-83
2023/04/12 03:11:24;;;;;;;13.88;8.82;;;3.30;99.90;;;;;;4992207;28;20642;-83
2023/04/12 03:13:53;;;;;;;12.65;9.20;;;3.30;99.90;;;;;;5008534;28;20245;-83
2023/04/12 03:16:24;;;;;;;10.65;7.47;;;3.30;99.90;;;;;;4995175;28;20207;-82
2023/04/12 03:18:52;;;;;;;16.55;8.93;;;3.30;99.90;;;;;;5003344;28;20208;-82
2023/04/12 03:21:20;;;;;;;12.25;7.45;;;3.20;99.90;;;;;;5010511;28;20201;-83
2023/04/12 03:23:47;;;;;;;10.98;8.10;;;3.20;99.90;;;;;;4996398;28;20408;-81
2023/04/12 03:26:14;;;;;;;11.68;8.43;;;3.20;99.90;;;;;;4994017;28;20495;-85
2023/04/12 03:28:41;;;;;;;10.50;7.60;;;3.20;99.90;;;;;;5008132;28;20211;-82
2023/04/12 03:31:09;;;;;;;16.33;9.68;;;3.30;99.90;;;;;;5010781;28;20207;-83
2023/04/12 03:33:36;;;;;;;9.27;8.13;;;3.20;99.90;;;;;;5005775;28;20220;-83
2023/04/12 03:36:05;;;;;;;17.60;10.10;;;3.20;99.90;;;;;;5001337;28;20265;-83
2023/04/12 03:38:31;;;;;;;12.15;8.00;;;3.10;99.90;;;;;;5014386;28;20402;-82
2023/04/12 03:40:59;;;;;;;10.77;8.70;;;3.10;99.90;;;;;;5000317;28;20491;-82
2023/04/12 03:43:26;;;;;;;9.90;8.18;;;3.00;99.90;;;;;;5000492;28;20804;-85
2023/04/12 03:45:52;;;;;;;12.07;8.23;;;3.00;99.90;;;;;;4999983;28;20371;-83
2023/04/12 03:48:21;;;;;;;9.18;8.13;;;3.00;99.90;;;;;;4996659;28;20202;-85
2023/04/12 03:50:53;;;;;;;12.82;6.72;;;3.00;99.90;;;;;;4996092;28;20215;-82
2023/04/12 03:53:31;;;;;;;14.70;8.80;;;2.90;99.90;;;;;;5004975;28;20206;-85
2023/04/12 03:55:59;;;;;;;11.05;7.60;;;2.90;99.90;;;;;;4996517;28;20215;-85
2023/04/12 03:58:26;;;;;;;13.40;7.22;;;2.90;99.90;;;;;;5006581;28;20201;-85
2023/04/12 04:00:52;;;;;;;9.27;6.80;;;2.70;99.90;;;;;;5004727;28;20207;-84
2023/04/12 04:03:25;;;;;;;12.25;7.78;;;2.70;99.90;;;;;;5013699;28;20240;-83
2023/04/12 04:05:53;;;;;;;11.48;7.82;;;2.80;99.90;;;;;;5005289;28;20207;-83
2023/04/12 04:08:19;;;;;;;11.55;7.45;;;2.90;99.90;;;;;;5004282;28;20206;-83
2023/04/12 04:10:46;;;;;;;16.13;8.95;;;2.90;99.90;;;;;;5007210;28;20272;-83
2023/04/12 04:13:16;;;;;;;9.02;7.55;;;2.80;99.90;;;;;;5000604;28;20243;-83
2023/04/12 04:15:48;;;;;;;10.90;7.45;;;2.90;99.90;;;;;;5014455;28;20240;-84
2023/04/12 04:18:15;;;;;;;11.50;9.48;;;3.00;99.90;;;;;;4998809;28;20277;-85
2023/04/12 04:20:45;;;;;;;22.48;8.70;;;2.90;99.90;;;;;;5003097;28;20206;-84
2023/04/12 04:23:11;;;;;;;13.43;8.95;;;3.00;99.90;;;;;;5008905;28;20232;-85
2023/04/12 04:25:38;;;;;;;8.23;7.38;;;3.10;99.90;;;;;;5002123;28;20216;-86
2023/04/12 04:28:22;;;;;;;14.60;10.88;;;3.10;99.90;;;;;;4998230;28;20230;-86
2023/04/12 04:30:50;;;;;;;12.57;9.48;;;3.30;99.90;;;;;;5007507;28;20515;-84
2023/04/12 04:33:18;;;;;;;13.48;11.70;;;3.40;99.90;;;;;;5010267;28;20258;-83
2023/04/12 04:35:50;;;;;;;11.70;8.85;;;3.50;99.90;;;;;;4998825;28;20220;-84
2023/04/12 04:38:24;;;;;;;13.10;10.00;;;3.50;99.90;;;;;;5013873;28;20510;-84
2023/04/12 04:40:57;;;;;;;12.77;8.80;;;3.50;99.90;;;;;;5013501;28;20217;-83
2023/04/12 04:43:25;;;;;;;9.60;8.45;;;3.50;99.90;;;;;;5018555;28;20226;-85
2023/04/12 04:45:56;;;;;;;12.05;8.13;;;3.50;99.90;;;;;;5027271;28;20193;-86
2023/04/12 04:48:23;;;;;;;13.13;9.20;;;3.60;99.90;;;;;;5036396;28;20188;-85
2023/04/12 04:50:51;;;;;;;16.45;12.52;;;3.90;99.90;;;;;;5016395;28;20207;-86
2023/04/12 04:53:25;;;;;;;15.35;11.65;;;4.20;99.90;;;;;;5010426;28;20213;-85
2023/04/12 04:55:58;;;;;;;21.17;11.13;;;4.40;99.90;;;;;;5013124;28;20287;-84
2023/04/12 04:58:26;;;;;;;13.27;10.32;;;4.70;99.90;;;;;;5003815;28;20213;-85
2023/04/12 05:00:56;;;;;;;12.57;10.82;;;5.00;99.90;;;;;;5005820;28;20548;-83
2023/04/12 05:03:26;;;;;;;15.73;10.00;;;5.00;99.90;;;;;;5005321;28;20481;-84
2023/04/12 05:05:56;;;;;;;12.77;9.52;;;5.20;99.90;;;;;;5004538;28;20208;-84
2023/04/12 05:08:24;;;;;;;9.57;7.45;;;5.40;99.90;;;;;;5003486;28;20214;-84
2023/04/12 05:10:58;;;;;;;8.75;6.78;;;5.50;99.90;;;;;;4994554;28;20219;-83
2023/04/12 05:13:28;;;;;;;7.45;6.05;;;5.50;99.90;;;;;;4997238;28;20220;-84
2023/04/12 05:15:57;;;;;;;12.07;7.88;;;5.60;99.90;;;;;;5010846;28;20245;-82
2023/04/12 05:18:24;;;;;;;6.15;5.60;;;5.60;99.90;;;;;;5012257;28;20244;-83
2023/04/12 05:20:51;;;;;;;5.32;4.82;;;5.50;99.90;;;;;;5002427;28;20212;-84
2023/04/12 05:23:20;;;;;;;8.52;6.10;;;5.10;99.90;;;;;;5005334;28;20221;-83
2023/04/12 05:25:50;;;;;;;7.53;5.50;;;5.00;99.90;;;;;;5007530;28;20214;-83
2023/04/12 05:28:18;;;;;;;7.97;5.22;;;5.10;99.90;;;;;;5011260;28;20246;-82
2023/04/12 05:30:46;;;;;;;18.13;5.10;;;5.30;99.90;;;;;;5002791;28;20214;-81
2023/04/12 05:33:14;;;;;;;9.18;4.90;;;5.50;99.90;;;;;;5006200;28;20453;-82
2023/04/12 05:35:41;;;;;;;8.07;4.20;;;5.90;99.90;;;;;;5009558;28;20769;-82
2023/04/12 05:38:08;;;;;;;4.25;3.83;;;6.30;99.90;;;;;;5017397;28;20204;-81
2023/04/12 05:40:35;;;;;;;6.07;5.47;;;6.40;99.90;;;;;;5003076;28;20213;-82
2023/04/12 05:43:02;;;;;;;7.90;5.80;;;6.70;99.90;;;;;;5009305;28;20541;-81
2023/04/12 05:45:29;;;;;;;5.80;5.15;;;7.00;99.90;;;;;;5013628;28;20243;-81
2023/04/12 05:47:56;;;;;;;17.67;6.70;;;7.40;99.90;;;;;;5015611;28;20249;-80
2023/04/12 05:50:22;;;;;;;7.38;4.82;;;7.90;99.90;;;;;;5018171;28;20208;-83
2023/04/12 05:52:52;;;;;;;6.68;4.28;;;8.00;99.90;;;;;;5006531;28;20193;-82
2023/04/12 05:55:20;;;;;;;5.88;4.38;;;8.10;99.90;;;;;;4992257;28;20206;-81
2023/04/12 05:57:47;;;;;;;6.68;4.93;;;8.40;99.90;;;;;;5008920;28;20206;-81
2023/04/12 06:00:18;;;;;;;6.60;4.50;;;8.70;99.90;;;;;;5016623;28;20232;-81
2023/04/12 06:02:49;;;;;;;6.30;4.55;;;8.90;99.90;;;;;;5011365;28;20280;-82
2023/04/12 06:05:16;;;;;;;4.15;3.25;;;9.20;99.90;;;;;;5003068;28;20220;-84
2023/04/12 06:07:47;;;;;;;5.40;4.88;;;9.70;99.90;;;;;;5006928;28;20240;-84
2023/04/12 06:10:15;;;;;;;5.65;4.00;;;10.20;99.90;;;;;;5013792;28;20242;-82
2023/04/12 06:12:43;;;;;;;4.78;4.38;;;10.90;99.90;;;;;;5011210;28;20228;-82
2023/04/12 06:15:11;;;;;;;4.28;3.88;;;11.70;99.90;;;;;;5009012;28;20213;-82
2023/04/12 06:17:38;;;;;;;4.35;3.65;;;12.00;99.90;;;;;;5006587;28;20205;-81
2023/04/12 06:20:08;;;;;;;8.80;4.90;;;12.50;99.90;;;;;;5015075;28;20228;-81
2023/04/12 06:22:36;;;;;;;4.60;3.72;;;12.60;99.90;;;;;;4991701;28;20202;-82
2023/04/12 06:25:04;;;;;;;8.68;5.07;;;12.50;99.90;;;;;;5005503;28;20240;-82
2023/04/12 06:27:30;;;;;;;12.93;6.00;;;12.70;99.90;;;;;;5010202;28;20208;-82
2023/04/12 06:29:58;;;;;;;11.27;5.18;;;13.20;99.90;;;;;;5014942;28;20197;-80
2023/04/12 06:32:25;;;;;;;6.93;3.88;;;13.50;99.90;;;;;;5009582;28;20246;-80
2023/04/12 06:34:52;;;;;;;5.13;4.10;;;14.20;99.90;;;;;;5008442;28;20336;-81
2023/04/12 06:37:20;;;;;;;7.43;5.17;;;14.80;99.90;;;;;;5005675;28;20590;-83
2023/04/12 06:39:47;;;;;;;7.60;4.90;;;15.90;99.90;;;;;;5008583;28;20470;-81
2023/04/12 06:42:16;;;;;;;6.87;4.50;;;16.20;99.90;;;;;;5007957;28;20506;-81
2023/04/12 06:44:43;;;;;;;4.53;4.00;;;17.70;99.90;;;;;;5013946;28;20475;-81
2023/04/12 06:47:10;;;;;;;4.80;4.30;;;18.50;99.90;;;;;;5010227;28;20447;-81
2023/04/12 06:49:38;;;;;;;11.10;4.30;;;19.10;99.90;;;;;;5008043;28;20421;-81
2023/04/12 06:52:05;;;;;;;5.80;4.40;;;20.20;99.90;;;;;;5009233;28;20415;-81
2023/04/12 06:54:35;;;;;;;7.00;4.73;;;20.40;99.90;;;;;;5011271;28;20445;-82
2023/04/12 06:57:02;;;;;;;5.30;3.77;;;21.50;99.50;;;;;;5006957;28;20456;-81
2023/04/12 06:59:28;;;;;;;5.83;4.13;;;23.10;97.90;;;;;;5018882;28;20531;-82
2023/04/12 07:01:55;;;;;;;5.33;4.50;;;22.90;93.50;;;;;;5007715;28;20660;-81
2023/04/12 07:04:22;;;;;;;3.43;3.00;;;23.40;93.10;;;;;;5010099;28;20824;-82
2023/04/12 07:06:49;;;;;;;7.93;4.37;;;23.90;85.00;;;;;;5020446;28;20466;-83
2023/04/12 07:09:18;;;;;;;6.83;4.13;;;25.20;83.70;;;;;;5017931;28;20702;-83
2023/04/12 07:11:46;;;;;;;5.77;4.70;;;24.70;84.00;;;;;;5022308;28;20434;-83
2023/04/12 07:14:13;;;;;;;5.03;4.30;;;25.60;79.70;;;;;;5018387;28;20425;-80
2023/04/12 07:16:41;;;;;;;6.80;4.87;;;25.50;74.70;;;;;;5010998;28;20844;-81
2023/04/12 07:19:08;;;;;;;9.20;4.80;;;24.40;76.70;;;;;;5008451;28;20511;-83
2023/04/12 07:21:35;;;;;;;6.67;5.23;;;24.70;78.40;;;;;;5011183;28;20461;-84
2023/04/12 07:24:02;;;;;;;9.43;5.33;;;26.90;73.20;;;;;;5009723;28;20525;-83
2023/04/12 07:26:30;;;;;;;7.17;5.37;;;27.30;69.90;;;;;;5008168;28;20896;-82
2023/04/12 07:28:57;;;;;;;5.70;5.20;;;28.10;68.50;;;;;;5000607;28;21057;-82
2023/04/12 07:31:24;;;;;;;12.20;5.83;;;27.10;67.00;;;;;;5022491;28;20442;-83
2023/04/12 07:33:51;;;;;;;7.60;5.60;;;26.30;71.20;;;;;;5015755;28;20772;-82
2023/04/12 07:36:20;;;;;;;7.43;4.97;;;27.30;67.70;;;;;;5014733;28;20825;-82
2023/04/12 07:38:48;;;;;;;13.93;5.50;;;27.60;68.00;;;;;;5008625;28;20447;-84
2023/04/12 07:41:17;;;;;;;7.20;4.83;;;26.60;67.00;;;;;;5013165;28;20450;-83
2023/04/12 07:43:44;;;;;;;4.80;4.40;;;26.80;67.40;;;;;;5004222;28;20517;-82
2023/04/12 07:46:11;;;;;;;6.73;4.60;;;25.00;68.10;;;;;;5006562;28;20522;-81
2023/04/12 07:48:38;;;;;;;6.23;4.77;;;25.30;70.80;;;;;;5022623;28;21000;-83
2023/04/12 07:51:05;;;;;;;5.33;3.70;;;27.50;68.60;;;;;;5014756;28;20447;-81
2023/04/12 07:53:31;;;;;;;4.93;4.27;;;28.20;64.90;;;;;;5015465;28;20649;-83
2023/04/12 07:55:58;;;;;;;8.07;4.43;;;28.60;61.50;;;;;;5010605;28;20544;-83
2023/04/12 07:58:25;;;;;;;8.73;3.83;;;28.30;62.50;;;;;;5013525;28;20447;-82
2023/04/12 08:00:52;;;;;;;6.77;3.47;;;27.60;64.50;;;;;;5012071;28;20458;-84
2023/04/12 08:03:19;;;;;;;3.10;2.80;;;28.10;59.80;;;;;;5014652;28;20462;-82
2023/04/12 08:05:52;;;;;;;4.37;3.07;;;27.60;59.90;;;;;;5014373;28;20798;-82
2023/04/12 08:08:21;;;;;;;2.80;2.57;;;28.20;64.80;;;;;;5011491;28;20441;-83
2023/04/12 08:10:49;;;;;;;5.37;3.20;;;28.70;59.60;;;;;;5014771;28;20471;-83
2023/04/12 08:13:17;;;;;;;3.07;2.77;;;30.40;59.30;;;;;;5012327;28;20971;-82
2023/04/12 08:15:46;;;;;;;4.93;3.73;;;30.40;57.90;;;;;;5006979;28;20457;-81
2023/04/12 08:18:14;;;;;;;2.47;2.27;;;30.10;58.50;;;;;;5014110;28;20756;-82
2023/04/12 08:20:42;;;;;;;5.30;2.20;;;31.50;56.60;;;;;;5013835;28;20790;-81
2023/04/12 08:23:10;;;;;;;4.80;2.37;;;32.80;54.90;;;;;;5007364;28;20443;-82
2023/04/12 08:25:38;;;;;;;5.20;4.17;;;31.30;53.20;;;;;;5012015;28;20852;-81
2023/04/12 08:28:08;;;;;;;4.40;2.60;;;29.80;56.40;;;;;;5011714;28;20443;-79
2023/04/12 08:30:35;;;;;;;6.43;2.60;;;27.10;59.20;;;;;;5001147;28;20498;-81
2023/04/12 08:33:02;;;;;;;5.80;2.70;;;23.30;63.90;;;;;;5011900;28;20451;-82
2023/04/12 08:35:29;;;;;;;5.63;2.30;;;21.60;73.20;;;;;;5007592;28;20447;-83
2023/04/12 08:37:57;;;;;;;5.37;4.60;;;19.90;86.30;;;;;;5007247;28;20446;-82
2023/04/12 08:40:24;;;;;;;3.53;3.23;;;19.70;92.30;;;;;;5009786;28;20785;-82
2023/04/12 08:42:52;;;;;;;2.43;2.00;;;21.60;91.10;;;;;;5012688;28;20454;-80
2023/04/12 08:45:22;;;;;;;3.67;2.23;;;23.60;82.30;;;;;;5013995;28;20486;-82
2023/04/12 08:47:49;;;;;;;2.23;1.87;;;24.90;75.70;;;;;;5013085;28;20413;-81
2023/04/12 08:50:17;;;;;;;4.47;3.00;;;25.70;67.10;;;;;;5006578;28;20446;-81
2023/04/12 08:52:47;;;;;;;4.47;2.10;;;26.30;66.00;;;;;;5012625;28;20447;-83
2023/04/12 08:55:14;;;;;;;4.00;2.87;;;28.10;61.80;;;;;;5003335;28;20426;-83
2023/04/12 08:57:41;;;;;;;4.60;3.17;;;29.40;59.80;;;;;;5009337;28;20443;-81
2023/04/12 09:00:09;;;;;;;3.50;2.20;;;30.40;57.40;;;;;;5008916;28;20524;-82
2023/04/12 09:02:37;;;;;;;8.23;2.90;;;30.40;56.40;;;;;;5006930;28;20913;-81
2023/04/12 09:05:05;;;;;;;2.63;2.23;;;29.70;57.30;;;;;;5007004;28;20517;-82
2023/04/12 09:07:33;;;;;;;3.43;2.00;;;30.10;57.30;;;;;;5001273;28;20436;-82
2023/04/12 09:10:00;;;;;;;4.50;2.40;;;30.60;55.40;;;;;;5000815;28;20447;-81
2023/04/12 09:12:27;;;;;;;4.63;2.30;;;29.60;56.70;;;;;;5003360;28;20486;-81
2023/04/12 09:15:07;;;;;;;3.33;3.00;;;28.30;56.10;;;;;;5014232;28;20450;-82
2023/04/12 09:17:38;;;;;;;5.70;3.00;;;26.20;58.70;;;;;;5017169;28;20473;-82
2023/04/12 09:20:10;;;;;;;4.07;1.90;;;24.90;61.30;;;;;;5016370;28;20470;-82
2023/04/12 09:22:44;;;;;;;16.43;2.23;;;25.20;63.00;;;;;;5015646;28;20461;-82
2023/04/12 09:25:11;;;;;;;4.83;3.53;;;24.60;63.60;;;;;;5009894;28;20650;-83
2023/04/12 09:27:49;;;;;;;3.10;2.80;;;22.90;68.10;;;;;;5015042;28;20662;-80
2023/04/12 09:30:18;;;;;;;2.50;2.30;;;22.10;78.40;;;;;;5009169;28;20444;-82
2023/04/12 09:32:48;;;;;;;4.87;3.37;;;21.20;81.60;;;;;;5008867;28;20467;-81
2023/04/12 09:35:15;;;;;;;6.83;4.63;;;20.80;84.30;;;;;;5009093;28;20451;-81
2023/04/12 09:37:42;;;;;;;4.03;2.97;;;20.40;85.70;;;;;;5017683;28;20723;-83
2023/04/12 09:40:10;;;;;;;5.70;5.10;;;20.00;93.70;;;;;;5013426;28;20452;-83
2023/04/12 09:42:53;;;;;;;7.83;3.47;;;19.50;95.10;;;;;;5007936;28;20513;-81
2023/04/12 09:45:25;;;;;;;2.80;2.60;;;18.80;94.70;;;;;;5012798;28;20825;-81
2023/04/12 09:47:53;;;;;;;3.10;2.80;;;18.40;99.30;;;;;;5005530;28;20456;-82
2023/04/12 09:50:26;;;;;;;4.30;2.77;;;17.80;99.80;;;;;;5008750;28;20417;-82
2023/04/12 09:52:54;;;;;;;2.57;2.37;;;17.70;99.90;;;;;;5005354;28;20501;-83
2023/04/12 09:55:24;;;;;;;1.90;1.80;;;17.20;99.90;;;;;;5013483;28;20501;-82
2023/04/12 09:57:52;;;;;;;2.60;2.37;;;16.60;99.90;;;;;;5006443;28;20676;-82
2023/04/12 10:00:25;;;;;;;4.27;2.63;;;16.20;99.90;;;;;;5000262;28;20562;-82
2023/04/12 10:02:54;;;;;;;4.17;3.83;;;16.20;99.90;;;;;;5006717;28;20443;-83
2023/04/12 10:05:26;;;;;;;4.40;3.27;;;16.10;99.90;;;;;;5014409;28;20543;-81
2023/04/12 10:07:54;;;;;;;3.23;2.70;;;16.10;99.90;;;;;;5000871;28;20435;-81
2023/04/12 10:10:22;;;;;;;5.43;2.97;;;15.70;99.90;;;;;;5006208;28;20425;-82
2023/04/12 10:12:49;;;;;;;3.53;2.83;;;15.40;99.90;;;;;;5007561;28;20450;-81
2023/04/12 10:15:19;;;;;;;2.77;2.37;;;14.80;99.90;;;;;;5013915;28;20459;-85
2023/04/12 10:17:53;;;;;;;5.43;2.57;;;14.90;99.90;;;;;;5002013;28;20588;-82
2023/04/12 10:20:22;;;;;;;9.57;3.50;;;15.00;99.90;;;;;;5006495;28;20446;-81
2023/04/12 10:22:55;;;;;;;5.70;3.10;;;15.20;99.90;;;;;;5004784;28;20421;-84
2023/04/12 10:25:24;;;;;;;2.67;2.43;;;15.40;99.90;;;;;;5001314;28;20480;-83
2023/04/12 10:27:52;;;;;;;3.03;2.10;;;15.70;99.90;;;;;;5011659;28;20780;-82
2023/04/12 10:30:27;;;;;;;8.87;2.70;;;16.30;99.90;;;;;;5000494;28;20444;-83
2023/04/12 10:33:08;;;;;;;3.53;2.47;;;16.50;99.90;;;;;;5005867;28;20458;-83
2023/04/12 10:35:52;;;;;;;4.57;2.20;;;17.00;99.90;;;;;;5008648;28;20424;-82
2023/04/12 10:38:19;;;;;;;2.30;1.87;;;16.30;99.90;;;;;;5013641;28;20486;-82
2023/04/12 10:41:11;;;;;;;1.53;1.20;;;16.00;99.90;;;;;;5010755;28;20505;-82
2023/04/12 10:43:46;;;;;;;1.70;1.60;;;15.80;99.90;;;;;;4995374;28;20627;-83
2023/04/12 10:46:38;;;;;;;2.27;2.03;;;15.50;99.90;;;;;;5005442;28;20484;-81
2023/04/12 10:49:08;;;;;;;3.10;2.00;;;15.00;99.90;;;;;;5003542;28;21023;-83
2023/04/12 10:51:35;;;;;;;2.07;1.60;;;14.70;99.90;;;;;;4998961;28;20461;-82
2023/04/12 10:54:14;;;;;;;2.07;1.87;;;14.60;99.90;;;;;;4997151;28;20447;-83
2023/04/12 10:56:42;;;;;;;4.57;2.20;;;14.80;99.90;;;;;;5001934;28;20662;-83
2023/04/12 10:59:10;;;;;;;1.93;1.77;;;15.10;99.90;;;;;;5014941;28;21024;-80
2023/04/12 11:01:39;;;;;;;4.30;1.70;;;15.00;99.90;;;;;;4990725;28;20471;-83
2023/04/12 11:04:11;;;;;;;2.60;1.70;;;15.00;99.90;;;;;;5001893;28;20764;-82
2023/04/12 11:06:51;;;;;;;3.73;2.00;;;15.20;99.90;;;;;;4997555;28;20431;-82
2023/04/12 11:09:32;;;;;;;3.93;2.00;;;15.00;99.90;;;;;;5002048;28;20490;-83
2023/04/12 11:12:05;;;;;;;4.43;1.70;;;14.80;99.90;;;;;;5002924;28;20466;-82
2023/04/12 11:14:37;;;;;;;3.57;1.97;;;14.90;99.90;;;;;;4994082;28;20458;-83
2023/04/12 11:17:07;;;;;;;6.60;2.53;;;14.90;99.90;;;;;;5009465;28;20740;-84
2023/04/12 11:19:38;;;;;;;2.57;2.37;;;15.10;99.90;;;;;;5001043;28;20717;-83
2023/04/12 11:22:07;;;;;;;3.10;2.20;;;15.50;99.90;;;;;;5019476;28;20442;-81
2023/04/12 11:24:38;;;;;;;2.40;2.03;;;15.30;99.90;;;;;;5007836;28;20487;-81
2023/04/12 11:27:05;;;;;;;2.30;2.10;;;15.20;99.90;;;;;;5007192;28;20447;-81
2023/04/12 11:29:33;;;;;;;2.63;2.13;;;15.40;99.90;;;;;;4998765;28;20447;-82
2023/04/12 11:32:04;;;;;;;3.13;2.83;;;15.50;99.90;;;;;;5009047;28;21025;-82
2023/04/12 11:34:35;;;;;;;4.63;2.20;;;15.50;99.90;;;;;;4997764;28;20463;-80
2023/04/12 11:37:05;;;;;;;2.47;1.93;;;15.20;99.90;;;;;;5009481;28;20629;-83
2023/04/12 11:39:33;;;;;;;2.20;2.00;;;15.30;99.90;;;;;;5007665;28;20506;-82
2023/04/12 11:42:02;;;;;;;5.73;2.10;;;14.90;99.90;;;;;;5012056;28;20445;-82
2023/04/12 11:44:31;;;;;;;2.43;2.07;;;14.60;99.90;;;;;;4995842;28;20448;-82
2023/04/12 11:47:22;;;;;;;1.87;1.40;;;14.50;99.90;;;;;;5012543;28;20451;-83
2023/04/12 11:49:57;;;;;;;2.43;1.90;;;14.00;99.90;;;;;;5013092;28;20452;-82
2023/04/12 11:52:32;;;;;;;3.93;2.23;;;13.90;99.90;;;;;;5016591;28;20542;-83
2023/04/12 11:55:03;;;;;;;3.33;2.47;;;13.90;99.90;;;;;;5014995;28;20420;-83
2023/04/12 11:57:30;;;;;;;5.68;3.65;;;13.90;99.90;;;;;;5011526;28;20256;-82
2023/04/12 11:59:59;;;;;;;1.63;1.52;;;13.90;99.90;;;;;;5011003;28;20442;-84
2023/04/12 12:02:27;;;;;;;3.65;2.15;;;13.70;99.90;;;;;;5003909;28;20205;-81
2023/04/12 12:05:05;;;;;;;1.83;1.73;;;13.60;99.90;;;;;;5010985;28;20252;-82
2023/04/12 12:07:33;;;;;;;1.85;1.75;;;13.70;99.90;;;;;;4999987;28;20570;-83
2023/04/12 12:10:00;;;;;;;2.10;1.90;;;13.70;99.90;;;;;;5012660;28;20526;-83
2023/04/12 12:12:27;;;;;;;4.57;1.95;;;13.70;99.90;;;;;;5013905;28;20209;-85
2023/04/12 12:14:59;;;;;;;3.50;2.85;;;13.90;99.90;;;;;;5001665;28;20256;-83
2023/04/12 12:17:27;;;;;;;2.95;2.45;;;13.80;99.90;;;;;;5002042;28;20623;-84
2023/04/12 12:19:58;;;;;;;2.28;2.10;;;13.60;99.90;;;;;;5014134;28;20457;-84
2023/04/12 12:22:25;;;;;;;5.13;2.25;;;13.20;99.90;;;;;;5011837;28;20577;-85
2023/04/12 12:24:58;;;;;;;2.30;2.10;;;13.10;99.90;;;;;;5000432;28;20230;-85
2023/04/12 12:27:29;;;;;;;4.38;2.67;;;13.30;99.90;;;;;;5002188;28;20292;-83
2023/04/12 12:30:00;;;;;;;4.15;2.50;;;13.30;99.90;;;;;;5019897;28;20205;-84
2023/04/12 12:32:35;;;;;;;3.65;2.13;;;13.30;99.90;;;;;;5003662;28;20416;-82
2023/04/12 12:35:08;;;;;;;6.03;2.80;;;13.40;99.90;;;;;;5007561;28;20213;-83
2023/04/12 12:37:35;;;;;;;4.70;2.58;;;13.50;99.90;;;;;;4997469;28;20206;-82
2023/04/12 12:40:12;;;;;;;5.30;3.33;;;13.60;99.90;;;;;;5008452;28;20225;-82
2023/04/12 12:42:47;;;;;;;7.25;3.50;;;13.60;99.90;;;;;;5006436;28;20228;-84
2023/04/12 12:45:16;;;;;;;4.50;3.45;;;13.60;99.90;;;;;;5003001;28;20237;-82
2023/04/12 12:48:00;;;;;;;7.75;3.05;;;13.50;99.90;;;;;;5004707;28;20292;-83
2023/04/12 12:50:30;;;;;;;4.57;3.85;;;13.80;99.90;;;;;;5010428;28;20243;-82
2023/04/12 12:52:59;;;;;;;4.65;3.63;;;14.00;99.90;;;;;;5002214;28;20402;-82
2023/04/12 12:55:27;;;;;;;4.57;3.10;;;14.20;99.90;;;;;;5011277;28;20205;-83
2023/04/12 12:57:57;;;;;;;3.92;2.20;;;14.40;99.90;;;;;;5010102;28;20489;-82
2023/04/12 13:00:29;;;;;;;3.17;2.17;;;14.40;99.90;;;;;;5015758;28;20398;-82